sensor_id;sensor_type;location;lat;lon;timestamp;P1;durP1;ratioP1;P2;durP2;ratioP2
23573;SDS011;11965;53.640;10.050;2022-09-27T00:01:34;3.58;;;2.92;;
23573;SDS011;11965;53.640;10.050;2022-09-27T00:04:00;4.75;;;2.90;;
23573;SDS011;11965;53.640;10.050;2022-09-27T00:06:26;4.15;;;2.70;;
23573;SDS011;11965;53.640;10.050;2022-09-27T00:08:54;3.33;;;2.40;;
23573;SDS011;11965;53.640;10.050;2022-09-27T00:11:33;3.83;;;2.60;;
23573;SDS011;11965;53.640;10.050;2022-09-27T00:14:00;7.28;;;2.80;;
23573;SDS011;11965;53.640;10.050;2022-09-27T00:16:28;2.58;;;2.38;;
23573;SDS011;11965;53.640;10.050;2022-09-27T00:19:28;2.83;;;2.63;;
23573;SDS011;11965;53.640;10.050;2022-09-27T00:21:48;2.63;;;2.42;;
23573;SDS011;11965;53.640;10.050;2022-09-27T00:24:15;2.67;;;2.47;;
23573;SDS011;11965;53.640;10.050;2022-09-27T00:26:42;5.00;;;2.70;;
23573;SDS011;11965;53.640;10.050;2022-09-27T00:29:08;2.95;;;2.67;;
23573;SDS011;11965;53.640;10.050;2022-09-27T00:31:35;2.90;;;2.50;;
23573;SDS011;11965;53.640;10.050;2022-09-27T00:34:02;2.88;;;2.38;;
23573;SDS011;11965;53.640;10.050;2022-09-27T00:36:29;2.72;;;2.53;;
23573;SDS011;11965;53.640;10.050;2022-09-27T00:38:56;3.05;;;2.30;;
23573;SDS011;11965;53.640;10.050;2022-09-27T00:41:33;3.35;;;2.50;;
23573;SDS011;11965;53.640;10.050;2022-09-27T00:52:37;3.40;;;2.70;;
23573;SDS011;11965;53.640;10.050;2022-09-27T00:54:56;5.78;;;2.53;;
23573;SDS011;11965;53.640;10.050;2022-09-27T00:57:26;2.50;;;2.30;;
23573;SDS011;11965;53.640;10.050;2022-09-27T01:00:00;3.00;;;2.50;;
23573;SDS011;11965;53.640;10.050;2022-09-27T01:02:31;3.38;;;2.42;;
23573;SDS011;11965;53.640;10.050;2022-09-27T01:04:57;5.68;;;2.80;;
23573;SDS011;11965;53.640;10.050;2022-09-27T01:07:24;3.22;;;2.53;;
23573;SDS011;11965;53.640;10.050;2022-09-27T01:09:49;2.63;;;2.42;;
23573;SDS011;11965;53.640;10.050;2022-09-27T01:20:52;2.97;;;2.50;;
23573;SDS011;11965;53.640;10.050;2022-09-27T01:34:39;3.45;;;2.33;;
23573;SDS011;11965;53.640;10.050;2022-09-27T01:40:07;2.55;;;2.35;;
23573;SDS011;11965;53.640;10.050;2022-09-27T01:43:09;2.67;;;2.42;;
23573;SDS011;11965;53.640;10.050;2022-09-27T01:45:42;2.80;;;2.42;;
23573;SDS011;11965;53.640;10.050;2022-09-27T01:48:32;2.72;;;2.35;;
23573;SDS011;11965;53.640;10.050;2022-09-27T01:51:14;3.05;;;2.42;;
23573;SDS011;11965;53.640;10.050;2022-09-27T01:53:46;2.58;;;2.38;;
23573;SDS011;11965;53.640;10.050;2022-09-27T01:56:37;4.68;;;2.20;;
23573;SDS011;11965;53.640;10.050;2022-09-27T01:59:19;2.63;;;2.22;;
23573;SDS011;11965;53.640;10.050;2022-09-27T02:01:56;3.08;;;2.50;;
23573;SDS011;11965;53.640;10.050;2022-09-27T02:04:32;3.00;;;2.20;;
23573;SDS011;11965;53.640;10.050;2022-09-27T02:07:13;2.60;;;2.40;;
23573;SDS011;11965;53.640;10.050;2022-09-27T02:09:47;3.05;;;2.45;;
23573;SDS011;11965;53.640;10.050;2022-09-27T02:12:26;2.67;;;2.40;;
23573;SDS011;11965;53.640;10.050;2022-09-27T02:15:14;2.83;;;2.60;;
23573;SDS011;11965;53.640;10.050;2022-09-27T02:20:25;3.15;;;2.20;;
23573;SDS011;11965;53.640;10.050;2022-09-27T02:22:58;2.75;;;2.30;;
23573;SDS011;11965;53.640;10.050;2022-09-27T02:31:23;3.33;;;2.37;;
23573;SDS011;11965;53.640;10.050;2022-09-27T02:33:51;2.47;;;2.28;;
23573;SDS011;11965;53.640;10.050;2022-09-27T02:36:22;5.63;;;2.40;;
23573;SDS011;11965;53.640;10.050;2022-09-27T02:38:48;3.63;;;2.80;;
23573;SDS011;11965;53.640;10.050;2022-09-27T02:41:17;2.58;;;2.38;;
23573;SDS011;11965;53.640;10.050;2022-09-27T02:43:44;3.05;;;2.65;;
23573;SDS011;11965;53.640;10.050;2022-09-27T02:46:25;2.90;;;2.60;;
23573;SDS011;11965;53.640;10.050;2022-09-27T02:55:03;5.95;;;2.70;;
23573;SDS011;11965;53.640;10.050;2022-09-27T03:00:56;3.05;;;2.75;;
23573;SDS011;11965;53.640;10.050;2022-09-27T03:03:48;3.50;;;2.63;;
23573;SDS011;11965;53.640;10.050;2022-09-27T03:06:19;3.47;;;2.97;;
23573;SDS011;11965;53.640;10.050;2022-09-27T03:08:47;2.88;;;2.60;;
23573;SDS011;11965;53.640;10.050;2022-09-27T03:11:14;3.22;;;2.78;;
23573;SDS011;11965;53.640;10.050;2022-09-27T03:13:40;3.55;;;3.05;;
23573;SDS011;11965;53.640;10.050;2022-09-27T03:16:07;3.75;;;3.20;;
23573;SDS011;11965;53.640;10.050;2022-09-27T03:18:52;2.95;;;2.65;;
23573;SDS011;11965;53.640;10.050;2022-09-27T03:21:43;4.28;;;3.17;;
23573;SDS011;11965;53.640;10.050;2022-09-27T03:24:09;3.63;;;3.10;;
23573;SDS011;11965;53.640;10.050;2022-09-27T03:26:34;5.07;;;3.47;;
23573;SDS011;11965;53.640;10.050;2022-09-27T03:29:00;3.85;;;3.33;;
23573;SDS011;11965;53.640;10.050;2022-09-27T03:31:25;4.03;;;3.40;;
23573;SDS011;11965;53.640;10.050;2022-09-27T03:34:09;3.72;;;3.17;;
23573;SDS011;11965;53.640;10.050;2022-09-27T03:36:35;5.57;;;3.72;;
23573;SDS011;11965;53.640;10.050;2022-09-27T03:39:01;3.95;;;3.40;;
23573;SDS011;11965;53.640;10.050;2022-09-27T03:41:26;4.63;;;3.50;;
23573;SDS011;11965;53.640;10.050;2022-09-27T03:43:52;3.83;;;3.42;;
23573;SDS011;11965;53.640;10.050;2022-09-27T03:46:20;4.75;;;3.83;;
23573;SDS011;11965;53.640;10.050;2022-09-27T03:48:46;4.05;;;3.65;;
23573;SDS011;11965;53.640;10.050;2022-09-27T03:51:11;6.85;;;3.95;;
23573;SDS011;11965;53.640;10.050;2022-09-27T03:53:37;7.03;;;3.53;;
23573;SDS011;11965;53.640;10.050;2022-09-27T03:56:03;4.28;;;3.72;;
23573;SDS011;11965;53.640;10.050;2022-09-27T03:58:28;4.05;;;3.65;;
23573;SDS011;11965;53.640;10.050;2022-09-27T04:00:55;4.20;;;3.50;;
23573;SDS011;11965;53.640;10.050;2022-09-27T04:03:21;4.78;;;3.75;;
23573;SDS011;11965;53.640;10.050;2022-09-27T04:06:05;4.10;;;3.45;;
23573;SDS011;11965;53.640;10.050;2022-09-27T04:08:37;4.47;;;3.80;;
23573;SDS011;11965;53.640;10.050;2022-09-27T04:11:04;5.55;;;3.95;;
23573;SDS011;11965;53.640;10.050;2022-09-27T04:13:30;4.05;;;3.60;;
23573;SDS011;11965;53.640;10.050;2022-09-27T04:15:55;4.20;;;3.80;;
23573;SDS011;11965;53.640;10.050;2022-09-27T04:18:39;4.47;;;3.88;;
23573;SDS011;11965;53.640;10.050;2022-09-27T04:21:28;5.40;;;3.95;;
23573;SDS011;11965;53.640;10.050;2022-09-27T04:23:54;6.65;;;4.50;;
23573;SDS011;11965;53.640;10.050;2022-09-27T04:26:21;4.97;;;3.97;;
23573;SDS011;11965;53.640;10.050;2022-09-27T04:28:50;4.88;;;4.38;;
23573;SDS011;11965;53.640;10.050;2022-09-27T04:31:18;5.22;;;4.50;;
23573;SDS011;11965;53.640;10.050;2022-09-27T04:33:59;4.63;;;4.20;;
23573;SDS011;11965;53.640;10.050;2022-09-27T04:36:27;5.70;;;4.40;;
23573;SDS011;11965;53.640;10.050;2022-09-27T04:39:13;4.80;;;4.30;;
23573;SDS011;11965;53.640;10.050;2022-09-27T04:41:41;6.28;;;5.10;;
23573;SDS011;11965;53.640;10.050;2022-09-27T04:44:07;5.05;;;4.07;;
23573;SDS011;11965;53.640;10.050;2022-09-27T04:46:32;4.80;;;4.30;;
23573;SDS011;11965;53.640;10.050;2022-09-27T04:48:59;5.25;;;4.35;;
23573;SDS011;11965;53.640;10.050;2022-09-27T04:51:25;5.32;;;4.43;;
23573;SDS011;11965;53.640;10.050;2022-09-27T04:53:52;5.45;;;4.30;;
23573;SDS011;11965;53.640;10.050;2022-09-27T04:56:18;4.53;;;4.13;;
23573;SDS011;11965;53.640;10.050;2022-09-27T04:58:44;5.97;;;3.90;;
23573;SDS011;11965;53.640;10.050;2022-09-27T05:01:10;4.50;;;4.10;;
23573;SDS011;11965;53.640;10.050;2022-09-27T05:03:56;5.45;;;4.47;;
23573;SDS011;11965;53.640;10.050;2022-09-27T05:06:22;5.25;;;4.40;;
23573;SDS011;11965;53.640;10.050;2022-09-27T05:08:48;5.32;;;4.35;;
23573;SDS011;11965;53.640;10.050;2022-09-27T05:11:16;4.60;;;4.20;;
23573;SDS011;11965;53.640;10.050;2022-09-27T05:14:02;5.82;;;4.82;;
23573;SDS011;11965;53.640;10.050;2022-09-27T05:16:32;4.78;;;4.18;;
23573;SDS011;11965;53.640;10.050;2022-09-27T05:19:17;4.70;;;4.20;;
23573;SDS011;11965;53.640;10.050;2022-09-27T05:22:17;6.15;;;4.60;;
23573;SDS011;11965;53.640;10.050;2022-09-27T05:24:44;5.88;;;4.65;;
23573;SDS011;11965;53.640;10.050;2022-09-27T05:27:11;6.10;;;4.75;;
23573;SDS011;11965;53.640;10.050;2022-09-27T05:29:42;5.05;;;4.18;;
23573;SDS011;11965;53.640;10.050;2022-09-27T05:32:31;8.80;;;4.63;;
23573;SDS011;11965;53.640;10.050;2022-09-27T05:35:18;6.00;;;4.22;;
23573;SDS011;11965;53.640;10.050;2022-09-27T05:37:54;11.43;;;5.07;;
23573;SDS011;11965;53.640;10.050;2022-09-27T05:40:26;4.80;;;4.30;;
23573;SDS011;11965;53.640;10.050;2022-09-27T05:42:53;5.20;;;4.50;;
23573;SDS011;11965;53.640;10.050;2022-09-27T05:45:20;7.70;;;4.63;;
23573;SDS011;11965;53.640;10.050;2022-09-27T05:47:57;5.22;;;4.10;;
23573;SDS011;11965;53.640;10.050;2022-09-27T05:50:24;5.90;;;4.57;;
23573;SDS011;11965;53.640;10.050;2022-09-27T05:52:51;5.40;;;4.80;;
23573;SDS011;11965;53.640;10.050;2022-09-27T05:55:18;5.85;;;5.18;;
23573;SDS011;11965;53.640;10.050;2022-09-27T05:57:57;5.38;;;4.85;;
23573;SDS011;11965;53.640;10.050;2022-09-27T06:00:30;6.35;;;4.47;;
23573;SDS011;11965;53.640;10.050;2022-09-27T06:02:58;6.22;;;4.75;;
23573;SDS011;11965;53.640;10.050;2022-09-27T06:05:43;8.40;;;5.30;;
23573;SDS011;11965;53.640;10.050;2022-09-27T06:08:35;6.38;;;4.90;;
23573;SDS011;11965;53.640;10.050;2022-09-27T06:11:05;7.15;;;5.47;;
23573;SDS011;11965;53.640;10.050;2022-09-27T06:13:37;6.95;;;5.40;;
23573;SDS011;11965;53.640;10.050;2022-09-27T06:16:08;7.47;;;5.85;;
23573;SDS011;11965;53.640;10.050;2022-09-27T06:18:36;6.60;;;5.53;;
23573;SDS011;11965;53.640;10.050;2022-09-27T06:21:02;7.63;;;5.65;;
23573;SDS011;11965;53.640;10.050;2022-09-27T06:23:29;8.05;;;6.18;;
23573;SDS011;11965;53.640;10.050;2022-09-27T06:26:02;8.65;;;6.68;;
23573;SDS011;11965;53.640;10.050;2022-09-27T06:28:38;9.25;;;6.50;;
23573;SDS011;11965;53.640;10.050;2022-09-27T06:31:05;7.88;;;6.28;;
23573;SDS011;11965;53.640;10.050;2022-09-27T06:33:46;9.55;;;7.15;;
23573;SDS011;11965;53.640;10.050;2022-09-27T06:36:13;9.85;;;7.45;;
23573;SDS011;11965;53.640;10.050;2022-09-27T06:38:39;12.25;;;6.93;;
23573;SDS011;11965;53.640;10.050;2022-09-27T06:41:25;8.75;;;6.72;;
23573;SDS011;11965;53.640;10.050;2022-09-27T06:44:03;10.40;;;6.93;;
23573;SDS011;11965;53.640;10.050;2022-09-27T06:46:47;10.10;;;6.80;;
23573;SDS011;11965;53.640;10.050;2022-09-27T06:49:42;8.63;;;6.50;;
23573;SDS011;11965;53.640;10.050;2022-09-27T06:52:08;8.18;;;6.53;;
23573;SDS011;11965;53.640;10.050;2022-09-27T06:54:33;6.85;;;5.78;;
23573;SDS011;11965;53.640;10.050;2022-09-27T06:56:59;7.05;;;5.75;;
23573;SDS011;11965;53.640;10.050;2022-09-27T06:59:24;6.90;;;5.10;;
23573;SDS011;11965;53.640;10.050;2022-09-27T07:02:32;6.22;;;4.25;;
23573;SDS011;11965;53.640;10.050;2022-09-27T07:05:26;7.63;;;4.20;;
23573;SDS011;11965;53.640;10.050;2022-09-27T07:08:11;6.53;;;4.25;;
23573;SDS011;11965;53.640;10.050;2022-09-27T07:10:38;6.55;;;4.28;;
23573;SDS011;11965;53.640;10.050;2022-09-27T07:13:05;6.72;;;3.75;;
23573;SDS011;11965;53.640;10.050;2022-09-27T07:15:32;4.53;;;3.75;;
23573;SDS011;11965;53.640;10.050;2022-09-27T07:18:05;4.73;;;3.83;;
23573;SDS011;11965;53.640;10.050;2022-09-27T07:20:31;5.03;;;3.45;;
23573;SDS011;11965;53.640;10.050;2022-09-27T07:23:00;4.60;;;3.15;;
23573;SDS011;11965;53.640;10.050;2022-09-27T07:25:25;2.78;;;1.83;;
23573;SDS011;11965;53.640;10.050;2022-09-27T07:27:51;3.95;;;2.40;;
23573;SDS011;11965;53.640;10.050;2022-09-27T07:30:17;1.95;;;1.70;;
23573;SDS011;11965;53.640;10.050;2022-09-27T07:32:44;3.95;;;2.08;;
23573;SDS011;11965;53.640;10.050;2022-09-27T07:35:10;2.38;;;1.80;;
23573;SDS011;11965;53.640;10.050;2022-09-27T07:37:39;1.73;;;1.30;;
23573;SDS011;11965;53.640;10.050;2022-09-27T07:40:05;2.90;;;1.40;;
23573;SDS011;11965;53.640;10.050;2022-09-27T07:42:37;2.33;;;1.40;;
23573;SDS011;11965;53.640;10.050;2022-09-27T07:45:06;6.07;;;1.67;;
23573;SDS011;11965;53.640;10.050;2022-09-27T07:47:53;5.03;;;1.80;;
23573;SDS011;11965;53.640;10.050;2022-09-27T07:50:38;5.32;;;1.63;;
23573;SDS011;11965;53.640;10.050;2022-09-27T07:53:22;3.83;;;1.30;;
23573;SDS011;11965;53.640;10.050;2022-09-27T07:56:20;3.47;;;1.30;;
23573;SDS011;11965;53.640;10.050;2022-09-27T07:58:46;1.35;;;1.10;;
23573;SDS011;11965;53.640;10.050;2022-09-27T08:01:12;3.00;;;1.40;;
23573;SDS011;11965;53.640;10.050;2022-09-27T08:03:38;2.25;;;1.30;;
23573;SDS011;11965;53.640;10.050;2022-09-27T08:06:04;2.35;;;1.35;;
23573;SDS011;11965;53.640;10.050;2022-09-27T08:08:30;3.58;;;1.20;;
23573;SDS011;11965;53.640;10.050;2022-09-27T08:10:57;1.23;;;1.13;;
23573;SDS011;11965;53.640;10.050;2022-09-27T08:13:23;4.05;;;1.30;;
23573;SDS011;11965;53.640;10.050;2022-09-27T08:15:50;2.40;;;1.40;;
23573;SDS011;11965;53.640;10.050;2022-09-27T08:18:20;2.05;;;1.20;;
23573;SDS011;11965;53.640;10.050;2022-09-27T08:20:54;1.38;;;1.08;;
23573;SDS011;11965;53.640;10.050;2022-09-27T08:23:47;1.90;;;1.35;;
23573;SDS011;11965;53.640;10.050;2022-09-27T08:26:30;3.72;;;1.50;;
23573;SDS011;11965;53.640;10.050;2022-09-27T08:29:19;1.65;;;1.15;;
23573;SDS011;11965;53.640;10.050;2022-09-27T08:31:50;2.88;;;1.50;;
23573;SDS011;11965;53.640;10.050;2022-09-27T08:34:18;1.98;;;1.02;;
23573;SDS011;11965;53.640;10.050;2022-09-27T08:36:44;2.25;;;1.17;;
23573;SDS011;11965;53.640;10.050;2022-09-27T08:39:09;3.60;;;1.17;;
23573;SDS011;11965;53.640;10.050;2022-09-27T08:47:16;2.17;;;0.80;;
23573;SDS011;11965;53.640;10.050;2022-09-27T08:50:01;3.83;;;1.05;;
23573;SDS011;11965;53.640;10.050;2022-09-27T08:52:31;2.03;;;1.08;;
23573;SDS011;11965;53.640;10.050;2022-09-27T08:55:17;0.85;;;0.73;;
23573;SDS011;11965;53.640;10.050;2022-09-27T08:57:53;0.85;;;0.63;;
23573;SDS011;11965;53.640;10.050;2022-09-27T09:00:22;2.25;;;0.80;;
23573;SDS011;11965;53.640;10.050;2022-09-27T09:02:48;1.67;;;0.80;;
23573;SDS011;11965;53.640;10.050;2022-09-27T09:08:22;2.90;;;0.80;;
23573;SDS011;11965;53.640;10.050;2022-09-27T09:22:28;1.63;;;1.05;;
23573;SDS011;11965;53.640;10.050;2022-09-27T09:30:24;1.33;;;0.75;;
23573;SDS011;11965;53.640;10.050;2022-09-27T09:35:39;0.95;;;0.90;;
23573;SDS011;11965;53.640;10.050;2022-09-27T09:38:17;1.63;;;1.10;;
23573;SDS011;11965;53.640;10.050;2022-09-27T09:40:51;1.50;;;1.20;;
23573;SDS011;11965;53.640;10.050;2022-09-27T09:43:38;2.95;;;1.20;;
23573;SDS011;11965;53.640;10.050;2022-09-27T09:46:23;2.33;;;1.60;;
23573;SDS011;11965;53.640;10.050;2022-09-27T09:48:59;1.50;;;1.40;;
23573;SDS011;11965;53.640;10.050;2022-09-27T09:51:35;1.52;;;1.42;;
23573;SDS011;11965;53.640;10.050;2022-09-27T09:54:13;1.90;;;1.33;;
23573;SDS011;11965;53.640;10.050;2022-09-27T09:56:48;1.40;;;1.30;;
23573;SDS011;11965;53.640;10.050;2022-09-27T10:01:51;1.83;;;1.40;;
23573;SDS011;11965;53.640;10.050;2022-09-27T10:04:23;3.20;;;1.75;;
23573;SDS011;11965;53.640;10.050;2022-09-27T10:06:54;2.15;;;1.60;;
23573;SDS011;11965;53.640;10.050;2022-09-27T10:09:25;1.77;;;1.38;;
23573;SDS011;11965;53.640;10.050;2022-09-27T10:12:10;1.40;;;1.30;;
23573;SDS011;11965;53.640;10.050;2022-09-27T10:14:37;2.53;;;1.52;;
23573;SDS011;11965;53.640;10.050;2022-09-27T10:17:08;1.70;;;1.60;;
23573;SDS011;11965;53.640;10.050;2022-09-27T10:19:39;2.60;;;1.60;;
23573;SDS011;11965;53.640;10.050;2022-09-27T10:22:10;1.88;;;1.40;;
23573;SDS011;11965;53.640;10.050;2022-09-27T10:25:00;1.30;;;1.20;;
23573;SDS011;11965;53.640;10.050;2022-09-27T10:27:49;2.08;;;1.52;;
23573;SDS011;11965;53.640;10.050;2022-09-27T10:30:31;3.22;;;1.40;;
23573;SDS011;11965;53.640;10.050;2022-09-27T10:33:05;1.95;;;1.65;;
23573;SDS011;11965;53.640;10.050;2022-09-27T10:35:45;1.33;;;0.98;;
23573;SDS011;11965;53.640;10.050;2022-09-27T10:38:35;3.72;;;1.40;;
23573;SDS011;11965;53.640;10.050;2022-09-27T10:41:16;1.50;;;1.30;;
23573;SDS011;11965;53.640;10.050;2022-09-27T10:43:54;1.85;;;1.13;;
23573;SDS011;11965;53.640;10.050;2022-09-27T10:49:07;2.63;;;1.00;;
23573;SDS011;11965;53.640;10.050;2022-09-27T10:51:56;1.60;;;1.10;;
23573;SDS011;11965;53.640;10.050;2022-09-27T10:54:29;1.17;;;1.08;;
23573;SDS011;11965;53.640;10.050;2022-09-27T10:59:42;1.50;;;1.40;;
23573;SDS011;11965;53.640;10.050;2022-09-27T11:02:20;1.20;;;1.02;;
23573;SDS011;11965;53.640;10.050;2022-09-27T11:07:27;1.52;;;1.20;;
23573;SDS011;11965;53.640;10.050;2022-09-27T11:10:01;1.40;;;1.27;;
23573;SDS011;11965;53.640;10.050;2022-09-27T11:12:39;1.10;;;1.10;;
23573;SDS011;11965;53.640;10.050;2022-09-27T11:15:12;1.77;;;1.30;;
23573;SDS011;11965;53.640;10.050;2022-09-27T11:18:29;1.65;;;1.10;;
23573;SDS011;11965;53.640;10.050;2022-09-27T11:20:43;1.33;;;0.90;;
23573;SDS011;11965;53.640;10.050;2022-09-27T11:32:22;0.90;;;0.73;;
23573;SDS011;11965;53.640;10.050;2022-09-27T11:46:27;1.23;;;0.90;;
23573;SDS011;11965;53.640;10.050;2022-09-27T11:54:24;1.00;;;1.00;;
23573;SDS011;11965;53.640;10.050;2022-09-27T12:00:08;1.00;;;1.00;;
23573;SDS011;11965;53.640;10.050;2022-09-27T12:06:00;1.40;;;0.80;;
23573;SDS011;11965;53.640;10.050;2022-09-27T12:11:38;4.38;;;1.30;;
23573;SDS011;11965;53.640;10.050;2022-09-27T12:16:47;1.33;;;1.23;;
23573;SDS011;11965;53.640;10.050;2022-09-27T12:19:24;1.85;;;1.17;;
23573;SDS011;11965;53.640;10.050;2022-09-27T12:22:06;1.65;;;1.30;;
23573;SDS011;11965;53.640;10.050;2022-09-27T12:24:39;1.15;;;1.10;;
23573;SDS011;11965;53.640;10.050;2022-09-27T12:27:19;1.35;;;1.25;;
23573;SDS011;11965;53.640;10.050;2022-09-27T12:30:12;0.98;;;0.93;;
23573;SDS011;11965;53.640;10.050;2022-09-27T12:35:27;1.75;;;1.15;;
23573;SDS011;11965;53.640;10.050;2022-09-27T12:40:26;0.90;;;0.90;;
23573;SDS011;11965;53.640;10.050;2022-09-27T12:46:07;1.33;;;1.20;;
23573;SDS011;11965;53.640;10.050;2022-09-27T12:48:48;1.75;;;1.05;;
23573;SDS011;11965;53.640;10.050;2022-09-27T12:51:37;2.00;;;1.00;;
23573;SDS011;11965;53.640;10.050;2022-09-27T12:59:35;1.67;;;1.05;;
23573;SDS011;11965;53.640;10.050;2022-09-27T13:04:55;1.85;;;0.80;;
23573;SDS011;11965;53.640;10.050;2022-09-27T13:13:26;1.05;;;0.98;;
23573;SDS011;11965;53.640;10.050;2022-09-27T13:15:58;1.83;;;0.90;;
23573;SDS011;11965;53.640;10.050;2022-09-27T13:21:02;2.72;;;1.00;;
23573;SDS011;11965;53.640;10.050;2022-09-27T13:23:49;1.13;;;0.80;;
23573;SDS011;11965;53.640;10.050;2022-09-27T13:29:01;1.25;;;0.90;;
23573;SDS011;11965;53.640;10.050;2022-09-27T13:34:39;0.77;;;0.77;;
23573;SDS011;11965;53.640;10.050;2022-09-27T13:43:04;1.02;;;0.70;;
23573;SDS011;11965;53.640;10.050;2022-09-27T13:45:56;2.05;;;0.60;;
23573;SDS011;11965;53.640;10.050;2022-09-27T13:50:57;1.83;;;0.80;;
23573;SDS011;11965;53.640;10.050;2022-09-27T13:56:02;1.08;;;0.70;;
23573;SDS011;11965;53.640;10.050;2022-09-27T13:58:43;0.77;;;0.77;;
23573;SDS011;11965;53.640;10.050;2022-09-27T14:01:52;0.60;;;0.60;;
23573;SDS011;11965;53.640;10.050;2022-09-27T14:04:30;2.28;;;1.00;;
23573;SDS011;11965;53.640;10.050;2022-09-27T14:07:02;0.82;;;0.77;;
23573;SDS011;11965;53.640;10.050;2022-09-27T14:09:32;0.98;;;0.88;;
23573;SDS011;11965;53.640;10.050;2022-09-27T14:12:17;1.70;;;0.80;;
23573;SDS011;11965;53.640;10.050;2022-09-27T14:14:47;2.78;;;1.17;;
23573;SDS011;11965;53.640;10.050;2022-09-27T14:17:14;1.85;;;0.80;;
23573;SDS011;11965;53.640;10.050;2022-09-27T14:19:41;2.35;;;1.13;;
23573;SDS011;11965;53.640;10.050;2022-09-27T14:22:10;1.75;;;0.93;;
23573;SDS011;11965;53.640;10.050;2022-09-27T14:24:55;1.40;;;0.75;;
23573;SDS011;11965;53.640;10.050;2022-09-27T14:27:29;1.65;;;0.73;;
23573;SDS011;11965;53.640;10.050;2022-09-27T14:30:16;6.78;;;0.93;;
23573;SDS011;11965;53.640;10.050;2022-09-27T14:32:50;1.23;;;0.85;;
23573;SDS011;11965;53.640;10.050;2022-09-27T14:35:27;3.58;;;0.90;;
23573;SDS011;11965;53.640;10.050;2022-09-27T14:38:17;3.42;;;1.00;;
23573;SDS011;11965;53.640;10.050;2022-09-27T14:43:17;1.25;;;0.80;;
23573;SDS011;11965;53.640;10.050;2022-09-27T14:45:45;2.40;;;1.00;;
23573;SDS011;11965;53.640;10.050;2022-09-27T14:48:20;0.93;;;0.90;;
23573;SDS011;11965;53.640;10.050;2022-09-27T14:50:55;2.00;;;1.20;;
23573;SDS011;11965;53.640;10.050;2022-09-27T14:53:26;2.17;;;1.08;;
23573;SDS011;11965;53.640;10.050;2022-09-27T14:55:54;1.02;;;0.93;;
23573;SDS011;11965;53.640;10.050;2022-09-27T14:58:21;1.80;;;1.10;;
23573;SDS011;11965;53.640;10.050;2022-09-27T15:00:47;2.47;;;1.20;;
23573;SDS011;11965;53.640;10.050;2022-09-27T15:03:22;1.10;;;0.95;;
23573;SDS011;11965;53.640;10.050;2022-09-27T15:05:51;4.32;;;1.30;;
23573;SDS011;11965;53.640;10.050;2022-09-27T15:08:17;1.50;;;1.38;;
23573;SDS011;11965;53.640;10.050;2022-09-27T15:10:44;4.30;;;1.27;;
23573;SDS011;11965;53.640;10.050;2022-09-27T15:13:11;3.28;;;1.25;;
23573;SDS011;11965;53.640;10.050;2022-09-27T15:15:40;2.78;;;1.20;;
23573;SDS011;11965;53.640;10.050;2022-09-27T15:20:56;1.42;;;1.20;;
23573;SDS011;11965;53.640;10.050;2022-09-27T15:23:26;1.20;;;1.10;;
23573;SDS011;11965;53.640;10.050;2022-09-27T15:28:49;1.67;;;1.30;;
23573;SDS011;11965;53.640;10.050;2022-09-27T15:31:28;1.33;;;1.17;;
23573;SDS011;11965;53.640;10.050;2022-09-27T15:33:58;3.13;;;1.38;;
23573;SDS011;11965;53.640;10.050;2022-09-27T15:39:08;5.78;;;4.32;;
23573;SDS011;11965;53.640;10.050;2022-09-27T15:44:49;7.93;;;6.47;;
23573;SDS011;11965;53.640;10.050;2022-09-27T15:49:56;2.35;;;1.73;;
23573;SDS011;11965;53.640;10.050;2022-09-27T15:55:18;16.17;;;9.70;;
23573;SDS011;11965;53.640;10.050;2022-09-27T15:57:57;3.20;;;1.50;;
23573;SDS011;11965;53.640;10.050;2022-09-27T16:00:26;7.70;;;4.30;;
23573;SDS011;11965;53.640;10.050;2022-09-27T16:02:52;1.88;;;1.40;;
23573;SDS011;11965;53.640;10.050;2022-09-27T16:05:20;5.57;;;2.10;;
23573;SDS011;11965;53.640;10.050;2022-09-27T16:07:51;1.83;;;1.15;;
23573;SDS011;11965;53.640;10.050;2022-09-27T16:10:17;3.63;;;2.90;;
23573;SDS011;11965;53.640;10.050;2022-09-27T16:12:45;2.15;;;1.30;;
23573;SDS011;11965;53.640;10.050;2022-09-27T16:15:11;1.65;;;1.23;;
23573;SDS011;11965;53.640;10.050;2022-09-27T16:17:38;2.55;;;1.20;;
23573;SDS011;11965;53.640;10.050;2022-09-27T16:20:08;1.75;;;1.52;;
23573;SDS011;11965;53.640;10.050;2022-09-27T16:22:41;2.15;;;1.42;;
23573;SDS011;11965;53.640;10.050;2022-09-27T16:25:07;3.22;;;1.38;;
23573;SDS011;11965;53.640;10.050;2022-09-27T16:27:32;2.58;;;1.20;;
23573;SDS011;11965;53.640;10.050;2022-09-27T16:29:57;2.67;;;1.33;;
23573;SDS011;11965;53.640;10.050;2022-09-27T16:32:23;2.45;;;1.67;;
23573;SDS011;11965;53.640;10.050;2022-09-27T16:34:49;2.97;;;1.30;;
23573;SDS011;11965;53.640;10.050;2022-09-27T16:37:14;1.60;;;1.05;;
23573;SDS011;11965;53.640;10.050;2022-09-27T16:39:40;2.58;;;1.70;;
23573;SDS011;11965;53.640;10.050;2022-09-27T16:42:05;1.30;;;1.20;;
23573;SDS011;11965;53.640;10.050;2022-09-27T16:44:32;1.60;;;0.85;;
23573;SDS011;11965;53.640;10.050;2022-09-27T16:47:01;1.00;;;0.73;;
23573;SDS011;11965;53.640;10.050;2022-09-27T16:49:28;1.38;;;1.20;;
23573;SDS011;11965;53.640;10.050;2022-09-27T16:52:12;2.40;;;1.30;;
23573;SDS011;11965;53.640;10.050;2022-09-27T16:54:40;2.58;;;2.00;;
23573;SDS011;11965;53.640;10.050;2022-09-27T16:57:06;3.17;;;1.50;;
23573;SDS011;11965;53.640;10.050;2022-09-27T16:59:32;1.60;;;1.25;;
23573;SDS011;11965;53.640;10.050;2022-09-27T17:01:57;4.70;;;3.47;;
23573;SDS011;11965;53.640;10.050;2022-09-27T17:04:23;4.53;;;3.97;;
23573;SDS011;11965;53.640;10.050;2022-09-27T17:06:50;5.88;;;3.17;;
23573;SDS011;11965;53.640;10.050;2022-09-27T17:09:16;2.38;;;2.17;;
23573;SDS011;11965;53.640;10.050;2022-09-27T17:11:41;4.25;;;2.00;;
23573;SDS011;11965;53.640;10.050;2022-09-27T17:14:06;2.60;;;2.10;;
23573;SDS011;11965;53.640;10.050;2022-09-27T17:16:36;1.98;;;1.40;;
23573;SDS011;11965;53.640;10.050;2022-09-27T17:19:02;2.33;;;1.48;;
23573;SDS011;11965;53.640;10.050;2022-09-27T17:21:27;2.90;;;1.60;;
23573;SDS011;11965;53.640;10.050;2022-09-27T17:23:53;6.00;;;3.35;;
23573;SDS011;11965;53.640;10.050;2022-09-27T17:26:19;3.97;;;3.40;;
23573;SDS011;11965;53.640;10.050;2022-09-27T17:28:46;12.35;;;7.78;;
23573;SDS011;11965;53.640;10.050;2022-09-27T17:31:13;4.25;;;3.67;;
23573;SDS011;11965;53.640;10.050;2022-09-27T17:33:40;8.70;;;6.00;;
23573;SDS011;11965;53.640;10.050;2022-09-27T17:36:42;7.03;;;5.47;;
23573;SDS011;11965;53.640;10.050;2022-09-27T17:39:02;8.82;;;6.95;;
23573;SDS011;11965;53.640;10.050;2022-09-27T17:41:28;14.75;;;9.65;;
23573;SDS011;11965;53.640;10.050;2022-09-27T17:43:55;7.72;;;5.95;;
23573;SDS011;11965;53.640;10.050;2022-09-27T17:46:25;18.65;;;12.18;;
23573;SDS011;11965;53.640;10.050;2022-09-27T17:48:52;37.30;;;25.83;;
23573;SDS011;11965;53.640;10.050;2022-09-27T17:51:37;27.30;;;16.45;;
23573;SDS011;11965;53.640;10.050;2022-09-27T17:54:04;23.73;;;16.50;;
23573;SDS011;11965;53.640;10.050;2022-09-27T17:56:31;17.27;;;10.45;;
23573;SDS011;11965;53.640;10.050;2022-09-27T17:59:00;43.50;;;39.05;;
23573;SDS011;11965;53.640;10.050;2022-09-27T18:01:26;14.57;;;13.07;;
23573;SDS011;11965;53.640;10.050;2022-09-27T18:03:52;11.40;;;8.38;;
23573;SDS011;11965;53.640;10.050;2022-09-27T18:06:21;5.35;;;3.28;;
23573;SDS011;11965;53.640;10.050;2022-09-27T18:08:47;3.03;;;1.80;;
23573;SDS011;11965;53.640;10.050;2022-09-27T18:11:14;5.18;;;3.67;;
23573;SDS011;11965;53.640;10.050;2022-09-27T18:13:42;3.05;;;2.60;;